createdAt,value
2023-03-15T00:00:42.552Z,0.38
2023-03-15T00:03:09.765Z,0.43
2023-03-15T00:05:36.738Z,0.50
2023-03-15T00:08:05.504Z,0.40
2023-03-15T00:10:33.940Z,0.40
2023-03-15T00:13:01.234Z,0.30
2023-03-15T00:15:28.204Z,0.50
2023-03-15T00:17:55.484Z,0.30
2023-03-15T00:20:22.717Z,0.40
2023-03-15T00:22:49.579Z,0.50
2023-03-15T00:25:18.131Z,0.45
2023-03-15T00:27:45.059Z,0.80
2023-03-15T00:30:14.220Z,1.83
2023-03-15T00:32:41.555Z,1.42
2023-03-15T00:35:10.236Z,2.10
2023-03-15T00:37:37.750Z,1.55
2023-03-15T00:40:07.120Z,1.38
2023-03-15T00:42:36.958Z,1.00
2023-03-15T00:45:04.318Z,0.80
2023-03-15T00:47:31.432Z,0.50
2023-03-15T00:49:59.300Z,0.40
2023-03-15T00:52:26.329Z,0.40
2023-03-15T00:54:53.396Z,0.30
2023-03-15T00:57:20.618Z,0.20
2023-03-15T00:59:49.056Z,0.40
2023-03-15T01:02:16.160Z,0.30
2023-03-15T01:04:43.201Z,0.20
2023-03-15T01:07:10.152Z,0.20
2023-03-15T01:09:37.097Z,0.20
2023-03-15T01:12:04.470Z,0.20
2023-03-15T01:14:31.633Z,0.20
2023-03-15T01:16:59.975Z,0.30
2023-03-15T01:19:26.880Z,0.20
2023-03-15T01:21:53.902Z,0.20
2023-03-15T01:24:20.977Z,0.20
2023-03-15T01:26:47.956Z,0.20
2023-03-15T01:29:15.134Z,0.25
2023-03-15T01:31:42.089Z,0.30
2023-03-15T01:34:10.548Z,0.30
2023-03-15T01:36:37.526Z,0.30
2023-03-15T01:39:04.803Z,0.30
2023-03-15T01:41:32.432Z,0.20
2023-03-15T01:43:59.490Z,0.20
2023-03-15T01:46:30.081Z,0.20
2023-03-15T01:49:00.565Z,0.20
2023-03-15T01:51:33.903Z,0.20
2023-03-15T01:54:06.807Z,0.30
2023-03-15T01:56:35.175Z,0.20
2023-03-15T01:59:05.088Z,0.20
2023-03-15T02:01:32.864Z,0.20
2023-03-15T02:04:09.732Z,0.20
2023-03-15T02:06:38.575Z,0.20
2023-03-15T02:09:09.092Z,0.30
2023-03-15T02:11:36.782Z,0.20
2023-03-15T02:14:05.807Z,0.20
2023-03-15T02:16:32.893Z,0.52
2023-03-15T02:18:59.925Z,0.30
2023-03-15T02:21:38.652Z,0.30
2023-03-15T02:24:12.324Z,0.20
2023-03-15T02:26:42.482Z,0.30
2023-03-15T02:29:11.576Z,0.20
2023-03-15T02:31:39.408Z,0.30
2023-03-15T02:34:07.548Z,0.30
2023-03-15T02:36:35.499Z,0.30
2023-03-15T02:39:03.592Z,0.50
2023-03-15T02:41:33.022Z,0.30
2023-03-15T02:44:02.099Z,0.40
2023-03-15T02:46:30.631Z,0.40
2023-03-15T02:48:57.638Z,0.38
2023-03-15T02:51:25.031Z,0.20
2023-03-15T02:53:52.076Z,0.30
2023-03-15T02:56:19.113Z,0.20
2023-03-15T02:58:46.279Z,0.20
2023-03-15T03:01:13.848Z,0.30
2023-03-15T03:03:42.962Z,0.30
2023-03-15T03:06:10.932Z,0.20
2023-03-15T03:08:37.956Z,0.22
2023-03-15T03:11:05.231Z,0.23
2023-03-15T03:13:32.386Z,0.20
2023-03-15T03:15:59.331Z,0.25
2023-03-15T03:18:26.325Z,0.20
2023-03-15T03:20:57.456Z,0.38
2023-03-15T03:23:26.103Z,0.40
2023-03-15T03:25:54.058Z,0.28
2023-03-15T03:28:21.366Z,0.25
2023-03-15T03:30:48.736Z,0.52
2023-03-15T03:33:15.847Z,0.40
2023-03-15T03:35:42.851Z,0.40
2023-03-15T03:38:11.968Z,0.30
2023-03-15T03:40:39.598Z,0.40
2023-03-15T03:43:07.121Z,0.40
2023-03-15T03:45:34.613Z,0.40
2023-03-15T03:48:01.596Z,0.30
2023-03-15T03:50:29.006Z,0.30
2023-03-15T03:52:56.260Z,0.30
2023-03-15T03:55:25.379Z,0.60
2023-03-15T03:57:53.235Z,0.40
2023-03-15T04:00:20.625Z,0.40
2023-03-15T04:02:48.891Z,0.30
2023-03-15T04:05:15.911Z,0.30
2023-03-15T04:07:42.920Z,0.30
2023-03-15T04:10:26.994Z,0.30
2023-03-15T04:12:54.400Z,0.40
2023-03-15T04:15:24.620Z,0.30
2023-03-15T04:17:58.501Z,0.30
2023-03-15T04:20:27.039Z,0.30
2023-03-15T04:22:54.875Z,0.20
2023-03-15T04:25:22.350Z,0.30
2023-03-15T04:27:58.966Z,0.30
2023-03-15T04:30:27.343Z,0.30
2023-03-15T04:33:00.169Z,0.30
2023-03-15T04:35:28.004Z,0.30
2023-03-15T04:37:55.423Z,0.20
2023-03-15T04:40:24.282Z,0.30
2023-03-15T04:42:55.620Z,0.40
2023-03-15T04:45:22.793Z,0.20
2023-03-15T04:47:50.307Z,0.40
2023-03-15T04:50:17.678Z,0.20
2023-03-15T04:52:44.773Z,0.30
2023-03-15T04:55:11.743Z,0.40
2023-03-15T04:57:38.888Z,0.32
2023-03-15T05:00:13.121Z,0.20
2023-03-15T05:02:41.819Z,0.30
2023-03-15T05:05:09.750Z,0.20
2023-03-15T05:07:37.090Z,0.30
2023-03-15T05:10:06.213Z,0.20
2023-03-15T05:12:34.042Z,0.20
2023-03-15T05:15:01.096Z,0.20
2023-03-15T05:17:29.772Z,0.30
2023-03-15T05:20:01.709Z,0.30
2023-03-15T05:22:28.933Z,0.20
2023-03-15T05:24:56.469Z,0.30
2023-03-15T05:27:23.785Z,0.30
2023-03-15T05:29:51.509Z,0.20
2023-03-15T05:32:18.410Z,0.40
2023-03-15T05:34:46.966Z,0.30
2023-03-15T05:37:13.931Z,0.30
2023-03-15T05:39:42.739Z,0.40
2023-03-15T05:42:09.684Z,0.40
2023-03-15T05:44:37.014Z,0.40
2023-03-15T05:47:04.182Z,0.40
2023-03-15T05:49:31.455Z,0.30
2023-03-15T05:51:59.878Z,0.23
2023-03-15T05:54:26.961Z,0.45
2023-03-15T05:56:54.019Z,0.22
2023-03-15T05:59:21.235Z,0.40
2023-03-15T06:05:26.657Z,0.40
2023-03-15T06:07:55.077Z,0.20
2023-03-15T06:10:22.273Z,0.30
2023-03-15T06:12:50.371Z,0.45
2023-03-15T06:15:17.551Z,1.02
2023-03-15T06:17:44.570Z,0.70
2023-03-15T06:20:13.944Z,0.20
2023-03-15T06:22:41.115Z,0.30
2023-03-15T06:25:10.062Z,0.30
2023-03-15T06:27:37.273Z,0.50
2023-03-15T06:30:05.149Z,0.40
2023-03-15T06:32:32.776Z,0.30
2023-03-15T06:34:59.912Z,0.35
2023-03-15T06:37:35.093Z,0.32
2023-03-15T06:40:11.514Z,0.45
2023-03-15T06:42:42.149Z,0.27
2023-03-15T06:45:10.040Z,0.40
2023-03-15T06:47:38.055Z,0.45
2023-03-15T06:50:08.937Z,0.20
2023-03-15T06:52:36.015Z,0.40
2023-03-15T06:55:03.043Z,0.30
2023-03-15T06:57:30.047Z,0.30
2023-03-15T07:00:01.036Z,0.60
2023-03-15T07:02:28.208Z,0.60
2023-03-15T07:04:55.425Z,0.40
2023-03-15T07:07:22.391Z,0.33
2023-03-15T07:09:50.457Z,0.30
2023-03-15T07:12:17.474Z,0.20
2023-03-15T07:14:46.637Z,0.20
2023-03-15T07:17:14.936Z,0.20
2023-03-15T07:19:55.403Z,0.30
2023-03-15T07:22:23.555Z,0.50
2023-03-15T07:24:51.329Z,0.40
2023-03-15T07:27:19.488Z,0.50
2023-03-15T07:29:47.717Z,0.30
2023-03-15T07:32:16.254Z,0.20
2023-03-15T07:34:43.306Z,0.30
2023-03-15T07:37:10.578Z,0.45
2023-03-15T07:39:37.819Z,0.50
2023-03-15T07:42:07.316Z,0.40
2023-03-15T07:44:34.420Z,0.50
2023-03-15T07:47:01.409Z,0.50
2023-03-15T07:49:31.010Z,0.52
2023-03-15T07:51:58.064Z,0.70
2023-03-15T07:54:26.921Z,1.02
2023-03-15T07:56:54.803Z,0.97
2023-03-15T07:59:21.884Z,0.60
2023-03-15T08:01:48.904Z,0.65
2023-03-15T08:04:15.915Z,0.60
2023-03-15T08:06:44.553Z,0.47
2023-03-15T08:09:12.132Z,1.00
2023-03-15T08:11:42.112Z,0.70
2023-03-15T08:14:10.373Z,0.75
2023-03-15T08:16:37.508Z,0.55
2023-03-15T08:19:04.567Z,0.65
2023-03-15T08:21:33.796Z,0.83
2023-03-15T08:24:02.442Z,0.63
2023-03-15T08:26:29.313Z,0.50
2023-03-15T08:28:56.364Z,0.47
2023-03-15T08:31:23.594Z,0.60
2023-03-15T08:33:50.556Z,0.73
2023-03-15T08:36:17.608Z,1.00
2023-03-15T08:38:44.700Z,1.20
2023-03-15T08:41:13.340Z,0.70
2023-03-15T08:43:40.395Z,0.77
2023-03-15T08:46:07.398Z,0.97
2023-03-15T08:48:34.389Z,0.98
2023-03-15T08:51:04.959Z,0.82
2023-03-15T08:53:32.246Z,1.05
2023-03-15T08:55:59.480Z,1.20
2023-03-15T08:58:27.892Z,0.60
2023-03-15T09:00:54.937Z,0.70
2023-03-15T09:03:22.686Z,0.90
2023-03-15T09:05:49.987Z,0.60
2023-03-15T09:08:21.187Z,0.85
2023-03-15T09:10:48.132Z,1.13
2023-03-15T09:13:15.010Z,0.45
2023-03-15T09:15:43.468Z,0.30
2023-03-15T09:18:10.421Z,0.45
2023-03-15T09:20:39.878Z,1.20
2023-03-15T09:23:07.900Z,0.80
2023-03-15T09:25:37.059Z,0.63
2023-03-15T09:28:04.645Z,0.98
2023-03-15T09:30:31.799Z,0.73
2023-03-15T09:33:00.976Z,1.58
2023-03-15T09:35:28.274Z,0.90
2023-03-15T09:37:55.928Z,1.05
2023-03-15T09:40:24.883Z,0.60
2023-03-15T09:42:59.546Z,0.85
2023-03-15T09:45:30.121Z,1.25
2023-03-15T09:48:00.638Z,1.43
2023-03-15T09:50:31.862Z,1.10
2023-03-15T09:53:00.713Z,0.68
2023-03-15T09:55:28.162Z,0.65
2023-03-15T09:57:57.419Z,0.98
2023-03-15T10:00:27.765Z,1.07
2023-03-15T10:02:59.612Z,0.85
2023-03-15T10:05:32.401Z,2.17
2023-03-15T10:07:59.377Z,0.68
2023-03-15T10:10:28.511Z,1.13
2023-03-15T10:13:00.974Z,0.80
2023-03-15T10:15:31.318Z,0.90
2023-03-15T10:18:11.654Z,0.88
2023-03-15T10:20:42.852Z,1.02
2023-03-15T10:23:12.966Z,1.60
2023-03-15T10:25:41.185Z,0.70
2023-03-15T10:28:11.329Z,1.10
2023-03-15T10:30:38.967Z,1.00
2023-03-15T10:33:14.701Z,0.90
2023-03-15T10:35:43.163Z,0.90
2023-03-15T10:38:15.610Z,1.43
2023-03-15T10:40:43.913Z,0.70
2023-03-15T10:43:17.164Z,0.77
2023-03-15T10:45:46.752Z,0.75
2023-03-15T10:48:13.794Z,0.60
2023-03-15T10:50:41.445Z,0.50
2023-03-15T10:53:11.297Z,0.50
2023-03-15T10:55:43.014Z,0.98
2023-03-15T10:58:19.191Z,1.13
2023-03-15T11:00:50.749Z,1.02
2023-03-15T11:03:18.893Z,0.40
2023-03-15T11:05:47.248Z,0.60
2023-03-15T11:08:22.236Z,0.70
2023-03-15T11:10:56.300Z,0.50
2023-03-15T11:13:24.322Z,0.70
2023-03-15T11:15:58.882Z,0.97
2023-03-15T11:18:27.789Z,0.75
2023-03-15T11:20:56.583Z,0.52
2023-03-15T11:23:26.421Z,0.40
2023-03-15T11:25:54.307Z,0.40
2023-03-15T11:28:22.695Z,0.67
2023-03-15T11:30:49.901Z,1.02
2023-03-15T11:33:30.244Z,0.80
2023-03-15T11:35:58.147Z,1.02
2023-03-15T11:38:33.526Z,0.70
2023-03-15T11:41:02.681Z,0.40
2023-03-15T11:43:34.720Z,0.43
2023-03-15T11:46:04.894Z,0.50
2023-03-15T11:48:36.568Z,0.60
2023-03-15T11:51:04.194Z,0.60
2023-03-15T11:53:34.549Z,0.53
2023-03-15T11:56:19.375Z,0.60
2023-03-15T11:59:04.256Z,0.50
2023-03-15T12:01:31.322Z,0.30
2023-03-15T12:04:15.031Z,0.77
2023-03-15T12:06:42.824Z,0.57
2023-03-15T12:09:28.946Z,0.40
2023-03-15T12:11:59.178Z,0.30
2023-03-15T12:14:29.039Z,0.32
2023-03-15T12:17:14.712Z,0.47
2023-03-15T12:19:42.104Z,0.50
2023-03-15T12:22:14.431Z,0.70
2023-03-15T12:24:44.267Z,0.70
2023-03-15T12:27:16.418Z,0.47
2023-03-15T12:29:45.796Z,0.85
2023-03-15T12:32:14.141Z,0.67
2023-03-15T12:34:46.004Z,1.00
2023-03-15T12:37:19.088Z,1.00
2023-03-15T12:39:47.628Z,0.90
2023-03-15T12:42:29.554Z,0.90
2023-03-15T12:45:20.636Z,0.60
2023-03-15T12:48:12.888Z,0.50
2023-03-15T12:50:50.995Z,0.80
2023-03-15T12:53:22.776Z,0.47
2023-03-15T12:55:54.137Z,0.50
2023-03-15T12:58:26.955Z,1.10
2023-03-15T13:00:55.584Z,0.82
2023-03-15T13:03:23.249Z,1.85
2023-03-15T13:06:03.947Z,1.40
2023-03-15T13:08:36.136Z,0.65
2023-03-15T13:11:11.877Z,0.70
2023-03-15T13:13:59.766Z,1.02
2023-03-15T13:16:33.397Z,0.82
2023-03-15T13:19:05.520Z,0.40
2023-03-15T13:21:34.589Z,0.90
2023-03-15T13:24:02.329Z,0.80
2023-03-15T13:26:45.073Z,0.73
2023-03-15T13:29:15.147Z,0.55
2023-03-15T13:31:44.297Z,1.10
2023-03-15T13:34:12.919Z,0.50
2023-03-15T13:36:41.048Z,0.30
2023-03-15T13:39:11.436Z,0.50
2023-03-15T13:41:38.861Z,0.70
2023-03-15T13:44:12.778Z,0.70
2023-03-15T13:46:40.259Z,1.33
2023-03-15T13:49:11.814Z,0.70
2023-03-15T13:51:39.709Z,0.38
2023-03-15T13:54:08.632Z,0.50
2023-03-15T13:56:51.654Z,0.70
2023-03-15T13:59:18.991Z,0.90
2023-03-15T14:01:46.311Z,0.50
2023-03-15T14:04:15.753Z,0.52
2023-03-15T14:06:45.711Z,0.60
2023-03-15T14:09:17.739Z,0.57
2023-03-15T14:11:44.996Z,1.23
2023-03-15T14:14:20.733Z,1.13
2023-03-15T14:17:03.615Z,1.02
2023-03-15T14:19:34.714Z,0.80
2023-03-15T14:22:02.692Z,0.80
2023-03-15T14:24:30.690Z,0.90
2023-03-15T14:27:00.934Z,0.97
2023-03-15T14:29:29.064Z,0.90
2023-03-15T14:31:59.587Z,0.82
2023-03-15T14:34:33.812Z,0.65
2023-03-15T14:37:04.485Z,0.40
2023-03-15T14:39:38.187Z,0.50
2023-03-15T14:42:05.452Z,0.57
2023-03-15T14:44:32.431Z,0.73
2023-03-15T14:46:59.556Z,0.63
2023-03-15T14:49:27.251Z,0.70
2023-03-15T14:51:56.181Z,0.93
2023-03-15T14:54:24.755Z,0.70
2023-03-15T14:56:51.738Z,0.80
2023-03-15T14:59:18.684Z,0.70
2023-03-15T15:01:48.670Z,0.50
2023-03-15T15:04:15.929Z,1.20
2023-03-15T15:06:51.573Z,0.90
2023-03-15T15:09:21.255Z,0.98
2023-03-15T15:11:50.050Z,0.80
2023-03-15T15:14:17.296Z,1.10
2023-03-15T15:16:44.712Z,0.90
2023-03-15T15:19:11.923Z,0.45
2023-03-15T15:21:39.107Z,0.47
2023-03-15T15:24:11.864Z,0.77
2023-03-15T15:26:39.043Z,0.80
2023-03-15T15:29:10.188Z,0.80
2023-03-15T15:31:38.183Z,1.10
2023-03-15T15:34:06.424Z,0.70
2023-03-15T15:36:34.677Z,0.60
2023-03-15T15:39:06.511Z,0.47
2023-03-15T15:41:34.426Z,1.00
2023-03-15T15:44:01.768Z,0.90
2023-03-15T15:46:30.432Z,0.73
2023-03-15T15:48:58.921Z,0.32
2023-03-15T15:51:27.982Z,0.65
2023-03-15T15:53:56.546Z,0.60
2023-03-15T15:56:27.438Z,0.57
2023-03-15T15:58:54.583Z,1.90
2023-03-15T16:01:21.727Z,0.57
2023-03-15T16:03:50.380Z,0.60
2023-03-15T16:06:18.265Z,0.70
2023-03-15T16:08:46.516Z,0.55
2023-03-15T16:11:14.430Z,0.75
2023-03-15T16:13:41.868Z,0.70
2023-03-15T16:16:11.649Z,0.65
2023-03-15T16:18:39.033Z,0.80
2023-03-15T16:21:07.528Z,0.63
2023-03-15T16:23:34.677Z,0.50
2023-03-15T16:26:01.673Z,0.70
2023-03-15T16:28:29.028Z,0.68
2023-03-15T16:30:56.438Z,0.77
2023-03-15T16:33:23.937Z,0.80
2023-03-15T16:35:53.737Z,0.95
2023-03-15T16:38:25.810Z,0.70
2023-03-15T16:40:53.486Z,0.80
2023-03-15T16:43:20.677Z,0.33
2023-03-15T16:45:47.743Z,1.35
2023-03-15T16:48:14.855Z,1.35
2023-03-15T16:50:43.290Z,1.55
2023-03-15T16:53:12.535Z,1.60
2023-03-15T16:55:41.328Z,4.43
2023-03-15T16:58:14.678Z,3.65
2023-03-15T17:00:44.455Z,2.08
2023-03-15T17:03:12.677Z,2.72
2023-03-15T17:05:40.913Z,3.08
2023-03-15T17:08:10.220Z,1.90
2023-03-15T17:10:42.424Z,1.10
2023-03-15T17:13:11.622Z,1.25
2023-03-15T17:15:39.389Z,1.40
2023-03-15T17:18:07.014Z,1.88
2023-03-15T17:20:37.988Z,1.00
2023-03-15T17:23:05.586Z,0.52
2023-03-15T17:25:33.255Z,2.13
2023-03-15T17:28:01.991Z,1.50
2023-03-15T17:30:30.231Z,1.45
2023-03-15T17:32:57.591Z,1.50
2023-03-15T17:35:27.855Z,3.03
2023-03-15T17:37:55.712Z,3.15
2023-03-15T17:40:25.249Z,1.08
2023-03-15T17:42:54.194Z,3.65
2023-03-15T17:45:24.228Z,4.63
2023-03-15T17:47:51.918Z,1.30
2023-03-15T17:50:19.769Z,1.90
2023-03-15T17:52:48.309Z,2.95
2023-03-15T17:55:16.606Z,2.10
2023-03-15T17:57:54.056Z,1.03
2023-03-15T18:00:25.250Z,1.50
2023-03-15T18:02:55.875Z,2.53
2023-03-15T18:05:24.525Z,2.10
2023-03-15T18:07:58.691Z,1.70
2023-03-15T18:10:31.532Z,1.63
2023-03-15T18:12:58.815Z,1.77
2023-03-15T18:15:27.746Z,2.33
2023-03-15T18:17:55.262Z,3.22
2023-03-15T18:20:24.143Z,3.72
2023-03-15T18:22:51.657Z,6.30
2023-03-15T18:25:20.044Z,5.68
2023-03-15T18:27:47.737Z,4.30
2023-03-15T18:30:16.112Z,3.45
2023-03-15T18:32:44.629Z,2.78
2023-03-15T18:35:14.909Z,2.33
2023-03-15T18:37:42.315Z,3.75
2023-03-15T18:40:11.241Z,4.57
2023-03-15T18:42:39.036Z,1.98
2023-03-15T18:45:07.071Z,2.35
2023-03-15T18:47:34.723Z,0.77
2023-03-15T18:50:10.552Z,1.10
2023-03-15T18:52:38.701Z,1.40
2023-03-15T18:55:07.938Z,1.17
2023-03-15T18:57:35.344Z,1.92
2023-03-15T19:00:07.352Z,1.23
2023-03-15T19:02:35.363Z,1.17
2023-03-15T19:05:04.155Z,2.17
2023-03-15T19:07:32.967Z,3.58
2023-03-15T19:09:59.891Z,1.42
2023-03-15T19:12:27.168Z,1.70
2023-03-15T19:14:55.644Z,2.33
2023-03-15T19:17:42.510Z,2.22
2023-03-15T19:20:12.503Z,1.88
2023-03-15T19:22:39.914Z,1.00
2023-03-15T19:25:08.635Z,1.00
2023-03-15T19:27:36.058Z,0.60
2023-03-15T19:30:04.212Z,0.85
2023-03-15T19:32:31.793Z,0.40
2023-03-15T19:34:59.093Z,0.75
2023-03-15T19:37:28.337Z,0.87
2023-03-15T19:39:55.646Z,1.08
2023-03-15T19:42:22.967Z,0.70
2023-03-15T19:44:50.206Z,1.52
2023-03-15T19:47:17.472Z,0.88
2023-03-15T19:49:44.851Z,1.43
2023-03-15T19:52:14.530Z,1.40
2023-03-15T19:54:43.839Z,0.63
2023-03-15T19:57:11.955Z,1.73
2023-03-15T19:59:41.388Z,1.48
2023-03-15T20:02:10.405Z,1.80
2023-03-15T20:04:39.284Z,2.88
2023-03-15T20:07:11.273Z,1.90
2023-03-15T20:09:39.256Z,1.00
2023-03-15T20:12:10.314Z,0.60
2023-03-15T20:14:38.566Z,0.30
2023-03-15T20:17:06.068Z,0.70
2023-03-15T20:19:34.112Z,0.82
2023-03-15T20:22:01.386Z,1.98
2023-03-15T20:24:28.735Z,0.90
2023-03-15T20:26:56.306Z,1.50
2023-03-15T20:29:25.026Z,0.55
2023-03-15T20:31:53.486Z,0.90
2023-03-15T20:34:22.195Z,0.45
2023-03-15T20:36:49.434Z,0.60
2023-03-15T20:39:18.514Z,0.60
2023-03-15T20:41:45.940Z,0.50
2023-03-15T20:44:13.160Z,0.43
2023-03-15T20:46:42.157Z,0.50
2023-03-15T20:49:10.118Z,0.70
2023-03-15T20:51:37.332Z,0.57
2023-03-15T20:54:05.196Z,1.73
2023-03-15T20:56:34.332Z,2.40
2023-03-15T20:59:01.718Z,0.50
2023-03-15T21:01:30.550Z,0.77
2023-03-15T21:03:59.362Z,1.17
2023-03-15T21:06:26.754Z,0.90
2023-03-15T21:08:55.117Z,1.08
2023-03-15T21:11:22.468Z,1.42
2023-03-15T21:13:49.403Z,1.27
2023-03-15T21:16:16.783Z,0.50
2023-03-15T21:18:44.883Z,0.93
2023-03-15T21:21:13.287Z,1.40
2023-03-15T21:23:40.246Z,0.90
2023-03-15T21:26:08.407Z,0.82
2023-03-15T21:28:35.824Z,0.67
2023-03-15T21:31:03.112Z,0.60
2023-03-15T21:33:30.336Z,0.80
2023-03-15T21:35:59.261Z,0.77
2023-03-15T21:38:27.852Z,1.15
2023-03-15T21:41:01.049Z,1.17
2023-03-15T21:43:28.740Z,0.60
2023-03-15T21:45:58.595Z,0.80
2023-03-15T21:48:25.741Z,0.45
2023-03-15T21:50:53.906Z,0.77
2023-03-15T21:53:21.282Z,0.67
2023-03-15T21:55:49.839Z,0.80
2023-03-15T21:58:16.961Z,0.55
2023-03-15T22:00:43.973Z,0.88
2023-03-15T22:03:13.597Z,0.30
2023-03-15T22:05:40.704Z,0.53
2023-03-15T22:08:07.726Z,0.75
2023-03-15T22:10:35.026Z,1.90
2023-03-15T22:13:03.611Z,0.90
2023-03-15T22:15:30.641Z,0.45
2023-03-15T22:17:57.731Z,0.70
2023-03-15T22:20:25.481Z,0.60
2023-03-15T22:22:52.762Z,0.68
2023-03-15T22:25:19.997Z,0.50
2023-03-15T22:27:47.290Z,0.82
2023-03-15T22:30:15.997Z,0.50
2023-03-15T22:32:45.886Z,0.43
2023-03-15T22:35:13.794Z,0.82
2023-03-15T22:37:40.765Z,0.70
2023-03-15T22:40:09.405Z,0.73
2023-03-15T22:42:36.612Z,0.70
2023-03-15T22:45:03.699Z,0.70
2023-03-15T22:47:32.280Z,0.45
2023-03-15T22:49:59.861Z,0.70
2023-03-15T22:52:26.802Z,0.90
2023-03-15T22:54:53.695Z,0.80
2023-03-15T22:57:20.655Z,0.60
2023-03-15T22:59:47.900Z,0.88
2023-03-15T23:02:15.589Z,0.90
2023-03-15T23:04:45.448Z,1.27
2023-03-15T23:07:12.492Z,0.80
2023-03-15T23:09:39.721Z,0.90
2023-03-15T23:12:07.429Z,0.90
2023-03-15T23:14:34.393Z,0.70
2023-03-15T23:17:03.435Z,0.55
2023-03-15T23:19:34.080Z,0.70
2023-03-15T23:22:04.458Z,0.63
2023-03-15T23:24:34.022Z,0.88
2023-03-15T23:27:03.572Z,0.50
2023-03-15T23:29:34.182Z,1.25
2023-03-15T23:32:09.612Z,0.90
2023-03-15T23:34:42.717Z,0.73
2023-03-15T23:37:11.039Z,0.60
2023-03-15T23:39:37.920Z,0.80
2023-03-15T23:42:05.105Z,0.70
2023-03-15T23:44:32.181Z,0.77
2023-03-15T23:46:59.936Z,0.60
2023-03-15T23:49:26.932Z,0.85
2023-03-15T23:51:58.423Z,0.40
2023-03-15T23:54:27.021Z,0.45
2023-03-15T23:56:54.009Z,1.30
2023-03-15T23:59:21.668Z,0.77
